Time;durP1;ratioP1;P1;durP2;ratioP2;P2;SDS_P1;SDS_P2;PMS_P1;PMS_P2;Temp;Humidity;BMP_temperature;BMP_pressure;BME280_temperature;BME280_humidity;BME280_pressure;Samples;Min_cycle;Max_cycle;Signal;HPM_P1;HPM_P2
2022/11/02 00:07:46;;;;;;;4.20;1.92;;;;;;;;;;20998346;28;20052;-62
2022/11/02 00:17:50;;;;;;;4.90;2.47;;;;;;;;;;20998490;28;20098;-61
2022/11/02 00:27:52;;;;;;;5.75;2.72;;;;;;;;;;20998173;28;20424;-62
2022/11/02 00:37:54;;;;;;;4.68;2.00;;;;;;;;;;20996883;28;20149;-63
2022/11/02 00:47:56;;;;;;;4.03;2.17;;;;;;;;;;20995705;28;20063;-62
2022/11/02 00:57:58;;;;;;;3.60;2.10;;;;;;;;;;20995125;28;20090;-63
2022/11/02 01:08:00;;;;;;;2.83;2.00;;;;;;;;;;20996443;28;20139;-62
2022/11/02 01:18:02;;;;;;;3.65;2.00;;;;;;;;;;20995807;28;20079;-62
2022/11/02 01:28:04;;;;;;;4.68;2.20;;;;;;;;;;20995534;28;20405;-62
2022/11/02 01:38:06;;;;;;;2.95;1.98;;;;;;;;;;20995837;28;20056;-61
2022/11/02 01:48:09;;;;;;;4.88;2.28;;;;;;;;;;20994495;28;20509;-62
2022/11/02 01:58:11;;;;;;;4.25;1.88;;;;;;;;;;20994147;28;20045;-61
2022/11/02 02:08:15;;;;;;;2.40;1.80;;;;;;;;;;20997690;28;20080;-62
2022/11/02 02:18:39;;;;;;;2.90;1.98;;;;;;;;;;21009729;28;20071;-60
2022/11/02 02:28:56;;;;;;;4.50;1.70;;;;;;;;;;21007069;28;20457;-63
2022/11/02 02:39:02;;;;;;;4.53;1.90;;;;;;;;;;21006078;28;20083;-62
2022/11/02 02:49:06;;;;;;;1.60;1.38;;;;;;;;;;21005257;28;20063;-61
2022/11/02 02:59:30;;;;;;;2.85;1.80;;;;;;;;;;21004666;28;20049;-62
2022/11/02 03:09:45;;;;;;;1.92;1.30;;;;;;;;;;21004536;28;20562;-61
2022/11/02 03:19:50;;;;;;;2.38;1.42;;;;;;;;;;21003099;28;20044;-61
2022/11/02 03:30:11;;;;;;;4.00;1.45;;;;;;;;;;21002497;28;20560;-63
2022/11/02 03:40:16;;;;;;;2.50;1.08;;;;;;;;;;21002121;28;20135;-61
2022/11/02 03:50:20;;;;;;;1.52;1.25;;;;;;;;;;21000000;28;20501;-61
2022/11/02 04:00:27;;;;;;;1.85;1.35;;;;;;;;;;20999773;28;20465;-61
2022/11/02 04:10:29;;;;;;;2.83;1.23;;;;;;;;;;20998990;28;20049;-60
2022/11/02 04:20:32;;;;;;;2.45;1.38;;;;;;;;;;20998804;28;20095;-60
2022/11/02 04:30:33;;;;;;;1.92;1.42;;;;;;;;;;20997601;28;20637;-61
2022/11/02 04:40:35;;;;;;;4.07;1.40;;;;;;;;;;20996393;28;20055;-61
2022/11/02 04:50:37;;;;;;;1.63;1.05;;;;;;;;;;20995480;28;20049;-62
2022/11/02 05:00:39;;;;;;;2.08;1.50;;;;;;;;;;20994872;28;20052;-61
2022/11/02 05:10:41;;;;;;;2.30;1.30;;;;;;;;;;20995855;28;20123;-62
2022/11/02 05:20:49;;;;;;;3.75;1.90;;;;;;;;;;20996049;28;20095;-61
2022/11/02 05:30:52;;;;;;;2.92;1.38;;;;;;;;;;20994712;28;20131;-61
2022/11/02 05:40:58;;;;;;;2.85;1.80;;;;;;;;;;20995068;28;20060;-62
2022/11/02 05:51:01;;;;;;;2.80;1.80;;;;;;;;;;21010159;28;20080;-61
2022/11/02 06:01:05;;;;;;;4.63;1.85;;;;;;;;;;21008814;28;20060;-63
2022/11/02 06:11:08;;;;;;;4.10;1.50;;;;;;;;;;21009809;28;20040;-61
2022/11/02 06:21:10;;;;;;;1.95;1.50;;;;;;;;;;21008816;28;20060;-62
2022/11/02 06:31:12;;;;;;;4.30;1.50;;;;;;;;;;21007739;28;20068;-62
2022/11/02 06:41:13;;;;;;;4.22;1.73;;;;;;;;;;21006318;28;20140;-61
2022/11/02 06:51:15;;;;;;;6.18;1.50;;;;;;;;;;21006635;28;20442;-62
2022/11/02 07:01:17;;;;;;;1.85;1.35;;;;;;;;;;21003714;28;20044;-61
2022/11/02 07:11:19;;;;;;;2.78;1.50;;;;;;;;;;21003945;28;20074;-61
2022/11/02 07:21:21;;;;;;;4.97;1.80;;;;;;;;;;21003656;28;20408;-61
2022/11/02 07:31:23;;;;;;;2.65;1.50;;;;;;;;;;21002288;28;20119;-64
2022/11/02 07:41:25;;;;;;;4.40;1.70;;;;;;;;;;21001268;28;20094;-62
2022/11/02 07:51:26;;;;;;;3.70;1.75;;;;;;;;;;21001685;28;20044;-62
2022/11/02 08:01:28;;;;;;;6.30;2.42;;;;;;;;;;20999905;28;20055;-62
2022/11/02 08:11:30;;;;;;;6.70;2.97;;;;;;;;;;21000007;28;20045;-62
2022/11/02 08:21:33;;;;;;;5.05;2.30;;;;;;;;;;20999649;28;20052;-62
2022/11/02 08:31:34;;;;;;;6.03;3.03;;;;;;;;;;20997298;28;20088;-62
2022/11/02 08:41:36;;;;;;;6.07;2.90;;;;;;;;;;20997422;28;20098;-62
2022/11/02 08:51:38;;;;;;;8.98;3.03;;;;;;;;;;20995118;28;20132;-62
2022/11/02 09:01:40;;;;;;;21.17;4.75;;;;;;;;;;20996817;28;20531;-61
2022/11/02 09:11:42;;;;;;;7.97;3.42;;;;;;;;;;20996151;28;20048;-61
2022/11/02 09:21:44;;;;;;;13.30;3.53;;;;;;;;;;20994674;28;20059;-62
2022/11/02 09:31:47;;;;;;;7.47;3.33;;;;;;;;;;20996008;28;20044;-61
2022/11/02 09:42:05;;;;;;;8.77;5.13;;;;;;;;;;20978780;28;20140;-62
2022/11/02 09:52:09;;;;;;;8.15;2.83;;;;;;;;;;20995009;28;20444;-63
2022/11/02 10:02:11;;;;;;;7.25;2.75;;;;;;;;;;20995151;28;20401;-61
2022/11/02 10:12:19;;;;;;;6.55;2.55;;;;;;;;;;20993884;28;20048;-62
2022/11/02 10:22:23;;;;;;;4.83;2.67;;;;;;;;;;20993578;28;20048;-60
2022/11/02 10:32:25;;;;;;;3.33;2.30;;;;;;;;;;21002432;28;20129;-60
2022/11/02 10:42:36;;;;;;;4.78;2.00;;;;;;;;;;21006694;28;20091;-63
2022/11/02 10:52:39;;;;;;;6.13;2.58;;;;;;;;;;21006613;28;20101;-62
2022/11/02 11:02:42;;;;;;;5.57;3.35;;;;;;;;;;21005709;28;20078;-61
2022/11/02 11:12:45;;;;;;;5.15;2.90;;;;;;;;;;21004696;28;20489;-61
2022/11/02 11:23:06;;;;;;;8.80;3.22;;;;;;;;;;21003220;28;20048;-62
2022/11/02 11:33:14;;;;;;;10.35;3.40;;;;;;;;;;21002990;28;20055;-64
2022/11/02 11:43:17;;;;;;;10.90;4.23;;;;;;;;;;21000930;28;20092;-61
2022/11/02 11:53:23;;;;;;;5.28;2.42;;;;;;;;;;21001258;28;20052;-62
2022/11/02 12:03:25;;;;;;;5.18;1.92;;;;;;;;;;20999312;28;20059;-61
2022/11/02 12:13:46;;;;;;;3.45;1.60;;;;;;;;;;20998641;28;20048;-62
2022/11/02 12:23:54;;;;;;;2.65;2.00;;;;;;;;;;20998524;28;20053;-65
2022/11/02 12:33:56;;;;;;;6.67;2.13;;;;;;;;;;20998052;28;20080;-62
2022/11/02 12:44:25;;;;;;;4.82;1.50;;;;;;;;;;20996955;28;20404;-61
2022/11/02 12:54:33;;;;;;;4.68;1.60;;;;;;;;;;20994006;28;20185;-62
2022/11/02 13:04:44;;;;;;;2.60;1.40;;;;;;;;;;20997014;28;20488;-62
2022/11/02 13:14:47;;;;;;;3.85;1.90;;;;;;;;;;20995952;28;20417;-63
2022/11/02 13:24:52;;;;;;;2.92;1.17;;;;;;;;;;20995737;28;20052;-62
2022/11/02 13:34:55;;;;;;;6.45;3.25;;;;;;;;;;20995402;28;20049;-63
2022/11/02 13:45:02;;;;;;;2.53;0.82;;;;;;;;;;20994473;28;20084;-62
2022/11/02 13:55:06;;;;;;;3.60;0.80;;;;;;;;;;20994045;28;20063;-62
2022/11/02 14:05:08;;;;;;;3.17;0.95;;;;;;;;;;21000598;28;20055;-64
2022/11/02 14:15:12;;;;;;;2.97;0.70;;;;;;;;;;21009241;28;20048;-62
2022/11/02 14:25:16;;;;;;;2.53;0.95;;;;;;;;;;21008331;28;20059;-62
2022/11/02 14:35:18;;;;;;;5.10;1.55;;;;;;;;;;21008289;28;20219;-62
2022/11/02 14:45:31;;;;;;;3.10;1.38;;;;;;;;;;21005979;28;20091;-60
2022/11/02 14:55:37;;;;;;;2.22;1.00;;;;;;;;;;21005784;28;20048;-61
2022/11/02 15:05:40;;;;;;;4.45;1.90;;;;;;;;;;21004843;28;20052;-61
2022/11/02 15:15:42;;;;;;;3.42;0.90;;;;;;;;;;21003508;28;20044;-63
2022/11/02 15:25:52;;;;;;;2.50;1.08;;;;;;;;;;21003203;28;20059;-61
2022/11/02 15:35:55;;;;;;;3.50;0.90;;;;;;;;;;21002219;28;20056;-63
2022/11/02 15:46:06;;;;;;;11.30;3.67;;;;;;;;;;21001090;28;20052;-64
2022/11/02 15:56:15;;;;;;;6.85;2.47;;;;;;;;;;21001566;28;20178;-65
2022/11/02 16:06:17;;;;;;;;;;;;;;;;;;21000651;28;20056;-63
2022/11/02 16:16:19;;;;;;;6.65;2.40;;;;;;;;;;20999359;28;20020;-78
2022/11/02 16:26:25;;;;;;;7.57;2.55;;;;;;;;;;20999443;28;20408;-66
2022/11/02 16:36:32;;;;;;;4.07;1.95;;;;;;;;;;20997777;28;20094;-81
2022/11/02 16:46:47;;;;;;;6.32;3.03;;;;;;;;;;20999702;28;20068;-76
2022/11/02 16:56:50;;;;;;;6.55;3.17;;;;;;;;;;20997556;28;20851;-72
2022/11/02 17:06:55;;;;;;;4.70;1.80;;;;;;;;;;20998259;28;20048;-73
2022/11/02 17:16:57;;;;;;;5.70;1.75;;;;;;;;;;20998082;28;20408;-67
2022/11/02 17:27:24;;;;;;;5.18;1.73;;;;;;;;;;20995818;28;20052;-76
2022/11/02 17:37:28;;;;;;;5.75;1.58;;;;;;;;;;20996904;28;20079;-71
2022/11/02 17:47:30;;;;;;;10.02;3.25;;;;;;;;;;21010509;28;20091;-70
2022/11/02 17:57:32;;;;;;;10.55;2.55;;;;;;;;;;21010138;28;20052;-69
2022/11/02 18:07:35;;;;;;;4.68;1.42;;;;;;;;;;21008738;28;20060;-71
2022/11/02 18:17:38;;;;;;;11.10;2.60;;;;;;;;;;21008722;28;20052;-71
2022/11/02 18:27:41;;;;;;;10.18;3.22;;;;;;;;;;21009142;28;20048;-71
2022/11/02 18:37:44;;;;;;;5.68;2.50;;;;;;;;;;21008531;28;20066;-71
2022/11/02 18:47:46;;;;;;;8.93;4.32;;;;;;;;;;21005928;28;20056;-71
2022/11/02 18:57:49;;;;;;;6.65;3.70;;;;;;;;;;21005988;28;20045;-71
2022/11/02 19:18:12;;;;;;;10.73;4.03;;;;;;;;;;21003388;28;20048;-68
2022/11/02 19:28:15;;;;;;;9.38;3.55;;;;;;;;;;21002454;28;20056;-70
2022/11/02 19:38:17;;;;;;;6.68;2.58;;;;;;;;;;21002344;28;20477;-70
2022/11/02 19:48:19;;;;;;;3.67;2.00;;;;;;;;;;21001891;28;20503;-70
2022/11/02 19:58:21;;;;;;;8.68;3.10;;;;;;;;;;21002133;28;20198;-72
2022/11/02 20:08:25;;;;;;;4.25;2.40;;;;;;;;;;21000552;28;20064;-72
2022/11/02 20:18:27;;;;;;;10.52;2.60;;;;;;;;;;20999995;28;20048;-70
2022/11/02 20:28:30;;;;;;;7.40;2.85;;;;;;;;;;20998978;28;20067;-71
2022/11/02 20:38:32;;;;;;;7.60;3.08;;;;;;;;;;20999147;28;20485;-71
2022/11/02 20:48:35;;;;;;;8.45;2.47;;;;;;;;;;20996986;28;20060;-70
2022/11/02 20:58:37;;;;;;;4.85;2.75;;;;;;;;;;20996880;28;20397;-70
2022/11/02 21:08:39;;;;;;;7.38;4.03;;;;;;;;;;20996258;28;20049;-71
2022/11/02 21:18:41;;;;;;;8.35;3.90;;;;;;;;;;20995456;28;20072;-70
2022/11/02 21:28:44;;;;;;;8.70;3.47;;;;;;;;;;20995151;28;20044;-71
2022/11/02 21:38:47;;;;;;;7.72;3.17;;;;;;;;;;20990168;28;20051;-71
2022/11/02 21:48:49;;;;;;;3.78;1.67;;;;;;;;;;20918978;28;20060;-71
2022/11/02 21:58:52;;;;;;;5.22;1.77;;;;;;;;;;20911218;28;20041;-71
2022/11/02 22:08:54;;;;;;;3.90;2.00;;;;;;;;;;20910697;28;20107;-71
2022/11/02 22:18:58;;;;;;;3.70;2.20;;;;;;;;;;20911594;28;20504;-71
2022/11/02 22:29:00;;;;;;;6.68;1.98;;;;;;;;;;20919963;28;20056;-70
2022/11/02 22:39:05;;;;;;;4.90;2.50;;;;;;;;;;20925006;28;20051;-72
2022/11/02 22:49:08;;;;;;;4.22;1.98;;;;;;;;;;20990295;28;20056;-72
2022/11/02 22:59:09;;;;;;;3.67;1.92;;;;;;;;;;21005542;28;20131;-70
2022/11/02 23:09:12;;;;;;;4.53;2.20;;;;;;;;;;21005971;28;20084;-71
2022/11/02 23:19:21;;;;;;;4.18;1.92;;;;;;;;;;21005254;28;20044;-71
2022/11/02 23:39:46;;;;;;;5.20;2.40;;;;;;;;;;21003002;28;20091;-69
2022/11/02 23:49:48;;;;;;;7.38;2.55;;;;;;;;;;21002146;28;20064;-72
2022/11/02 23:59:50;;;;;;;6.03;2.90;;;;;;;;;;21001124;28;20074;-71
